PDT,Max TemperatureF,Mean TemperatureF,Min TemperatureF,Max Dew PointF,MeanDew PointF,Min DewpointF,Max Humidity, Mean Humidity, Min Humidity, Max Sea Level PressureIn, Mean Sea Level PressureIn, Min Sea Level PressureIn, Max VisibilityMiles, Mean VisibilityMiles, Min VisibilityMiles, Max Wind SpeedMPH, Mean Wind SpeedMPH, Max Gust SpeedMPH,PrecipitationIn, CloudCover, Events, WindDirDegrees
2013-4-1,66,62,57,,,,,,,30.16,30.13,30.11,20,14,7,16,8,,0.00,5,,318
2013-4-2,66,55,44,32,32,32,36,36,36,30.19,30.15,30.10,20,13,10,16,8,,0.00,4,,327
2013-4-3,77,66,53,,,,,,,30.13,30.05,29.98,15,10,7,21,8,,0.00,5,,358
2013-4-4,68,60,53,,,,,,,30.10,30.07,30.03,20,14,8,15,12,,0.00,6,Rain,200
2013-4-5,64,60,55,,,,,,,30.19,30.16,30.13,20,15,10,17,7,,0.00,6,,325
2013-4-6,66,60,53,,,,,,,30.21,30.17,30.15,20,12,10,14,7,,0.00,7,,327
2013-4-7,68,60,53,,,,,,,30.14,30.06,29.96,20,13,10,20,9,24,0.00,5,,319
2013-4-8,66,58,50,,,,,,,29.99,29.94,29.90,20,15,10,21,17,32,0.00,1,,314
2013-4-9,75,64,53,,,,,,,30.07,30.05,30.03,20,20,20,23,16,30,0.00,0,,315
2013-4-10,82,66,50,,,,,,,30.18,30.12,30.06,,,,22,11,,0.00,0,,316
2013-4-11,69,61,53,,,,,,,30.05,29.95,29.87,15,11,10,18,8,,0.00,1,,348
2013-4-12,68,59,50,,,,,,,29.93,29.89,29.84,10,10,7,16,9,24,0.00,2,,353
2013-4-13,68,56,44,,,,,,,29.92,29.89,29.87,15,14,10,21,9,25,0.00,4,,319
2013-4-14,68,59,50,,,,,,,29.95,29.92,29.89,20,12,10,21,13,37,0.00,0,,328
2013-4-15,59,54,48,,,,,,,29.95,29.93,29.91,20,13,10,24,14,36,0.00,3,,301
2013-4-16,68,54,41,,,,,,,30.10,30.07,30.05,,,,17,7,29,0.00,0,,324
2013-4-17,69,63,57,,,,,,,30.27,30.22,30.18,,,,25,16,29,0.00,0,,322
2013-4-18,77,60,42,,,,,,,30.27,30.23,30.18,20,13,10,16,5,,0.00,0,,350
2013-4-19,77,62,48,,,,,,,30.24,30.16,30.09,10,10,10,16,8,23,0.00,1,,348
2013-4-20,80,64,48,,,,,,,30.12,30.05,29.99,,,,16,9,23,0.00,0,,332
2013-4-21,84,66,48,,,,,,,30.05,29.99,29.93,15,14,10,15,7,,0.00,0,,337
2013-4-22,89,76,62,,,,,,,29.97,29.91,29.84,10,10,10,20,7,,0.00,0,,345
2013-4-23,82,72,57,,,,,,,29.94,29.91,29.87,20,20,20,20,6,23,0.00,0,,338
2013-4-24,66,60,53,,,,,,,29.91,29.88,29.85,20,11,7,17,8,20,0.00,1,,360
2013-4-25,66,58,51,,,,,,,30.12,30.07,30.01,20,18,15,24,11,,0.00,2,,339
2013-4-26,64,58,53,,,,,,,30.24,30.20,30.18,15,14,10,16,10,,0.00,2,,337
2013-4-27,68,60,51,,,,,,,30.24,30.17,30.11,15,10,6,16,9,,0.00,2,,345
2013-4-28,77,65,53,,,,,,,30.06,29.98,29.89,20,11,5,16,7,,0.00,3,,359
2013-4-29,86,70,53,,,,,,,29.91,29.84,29.77,15,15,15,17,9,21,0.00,2,,345
2013-4-30,80,66,51,,,,,,,29.86,29.83,29.79,20,12,10,16,7,,0.00,2,,340